Nearby METAR Reports

 

KMTN - Baltimore/Martin, Maryland, USA
Distance from station: SSE 8mi, 13km
Updated: Tue, 02-Sep-2014 2:30am EDT
Partly cloudy
Partly cloudy
 Wind from calm
Wind: Calm
Temperature: 77°F , 25°C
Dew Point: 75°F , 24°C
Humidity: 94%
Barometer: 29.96 inHg , 1014.6 hPa
Clouds: Partly cloudy
Visibility: 10 miles , 16 km
Cloud details: Partly cloudy 5500 ft
Partly cloudy 6500 ft
Partly cloudy 7500 ft
2014/09/02 06:30 KMTN 020630Z AUTO 00000KT 10SM SCT055 SCT065 SCT075 25/24 A2996 RMK AO2
KDMH - Baltimore/Dwntwn, Maryland, USA
Distance from station: SW 12mi, 19km
Updated: Tue, 02-Sep-2014 1:54am EDT

 
Temperature: 81°F , 27°C
Heat Index: 85°F , 29°C
Dew Point: 72°F , 22°C
Humidity: 74%
Barometer: 29.96 inHg , 1014.6 hPa
2014/09/02 05:54 KDMH 020554Z AUTO 27/22 A2996 RMK AO1 SLP145 T02720222 10300 20272 55001
 
KBWI - Balto/Wash Intl, Maryland, USA
Distance from station: SSW 20mi, 33km
Updated: Tue, 02-Sep-2014 1:54am EDT
Partly cloudy
Partly cloudy
 Wind from calm
Wind: Calm
Temperature: 75°F , 24°C
Dew Point: 72°F , 22°C
Humidity: 89%
Barometer: 29.96 inHg , 1014.6 hPa
Clouds: Partly cloudy
Visibility: 10 miles , 16 km
Cloud details: Few Clouds 7000 ft
Partly cloudy 8500 ft
Partly cloudy 15000 ft
2014/09/02 05:54 KBWI 020554Z 00000KT 10SM FEW070 SCT085 SCT150 24/22 A2996 RMK AO2 TSE07 SLP143 OCNL LTGIC DSNT NE CB DSNT NE MOV E 60001 T02390217 10278 20239 55001
KDMW - Carroll Cnty, Maryland, USA
Distance from station: WNW 30mi, 48km
Updated: Tue, 02-Sep-2014 2:30am EDT
Clear
Clear
 Wind from calm
Wind: Calm
Temperature: 75°F , 24°C
Dew Point: 72°F , 22°C
Humidity: 89%
Barometer: 29.98 inHg , 1015.2 hPa
Clouds: Clear
Visibility: 10 miles , 16 km
2014/09/02 06:30 KDMW 020630Z AUTO 00000KT 10SM CLR 24/22 A2998 RMK AO2
 
KNAK - Annapolis/Naval, Maryland, USA
Distance from station: S 30mi, 48km
Updated: Tue, 02-Sep-2014 1:54am EDT
Few Clouds
Few Clouds
 Wind from calm
Wind: Calm
Temperature: 81°F , 27°C
Heat Index: 86°F , 30°C
Dew Point: 73°F , 23°C
Humidity: 79%
Barometer: 29.95 inHg , 1014.2 hPa
Clouds: Few Clouds
Visibility: 10 miles , 16 km
Cloud details: Few Clouds 12000 ft
2014/09/02 05:54 KNAK 020554Z AUTO 00000KT 10SM FEW120 27/23 A2995 RMK AO2 SLP145 T02670228 10283 20256 55003 $
KW29 - Stevensville, Maryland, USA
Distance from station: SSE 31mi, 50km
Updated: Tue, 02-Sep-2014 2:29am EDT

 Wind from WSW
Wind: WSW 6 mph , 9 km/h
Temperature: 79°F , 26°C
Dew Point: 73°F , 23°C
Humidity: 84%
Barometer: 29.95 inHg , 1014.2 hPa
Visibility: 10 miles , 16 km
2014/09/02 06:29 KW29 020629Z AUTO 25005KT 10SM 26/23 A2995 RMK AO1
 
KCGS - College Park, Maryland, USA
Distance from station: SW 38mi, 61km
Updated: Tue, 02-Sep-2014 2:25am EDT
Clear
Clear
 Wind from calm
Wind: Calm
Temperature: 75°F , 24°C
Dew Point: 73°F , 23°C
Humidity: 94%
Barometer: 29.96 inHg , 1014.6 hPa
Clouds: Clear
Visibility: 10 miles , 16 km
2014/09/02 06:25 KCGS 020625Z AUTO 00000KT 10SM CLR 24/23 A2996 RMK AO1
KGAI - Gaithersburg, Maryland, USA
Distance from station: WSW 40mi, 65km
Updated: Tue, 02-Sep-2014 2:35am EDT
Overcast
Overcast
 Wind from calm
Wind: Calm
Temperature: 73°F , 23°C
Dew Point: 72°F , 22°C
Humidity: 94%
Barometer: 30.00 inHg , 1015.9 hPa
Clouds: Overcast
Visibility: 3/4 mile , 5 km
Cloud details: Overcast 500 ft
2014/09/02 06:35 KGAI 020635Z AUTO 00000KT 3/4SM VV005 23/22 A3000 RMK AO1
 
KTHV - York, Pennsylvania, USA
Distance from station: NNW 40mi, 65km
Updated: Tue, 02-Sep-2014 1:53am EDT
Few Clouds
Few Clouds
 Wind from calm
Wind: Calm
Temperature: 72°F , 22°C
Dew Point: 70°F , 21°C
Humidity: 94%
Barometer: 29.96 inHg , 1014.6 hPa
Clouds: Few Clouds
Visibility: 10 miles , 16 km
Cloud details: Few Clouds 9000 ft
2014/09/02 05:53 KTHV 020553Z AUTO 00000KT 10SM FEW090 22/21 A2996 RMK AO2 SLP142 T02220211 10256 20206 58005
KFDK - Frederick, Maryland, USA
Distance from station: W 47mi, 75km
Updated: Tue, 02-Sep-2014 2:25am EDT
Clear
Clear
 Wind from SSE
Wind: SSE 3 mph , 6 km/h
Barometer: 29.99 inHg , 1015.6 hPa
Clouds: Clear
Visibility: 7 miles , 11 km
2014/09/02 06:25 KFDK 020625Z AUTO 15003KT 7SM CLR A2999 RMK AO2 LTG DSNT E
 
KESN - Easton/Newnam, Maryland, USA
Distance from station: SSE 48mi, 78km
Updated: Tue, 02-Sep-2014 2:41am EDT
Clear
Clear
 Wind from calm
Wind: Calm
Temperature: 79°F , 26°C
Dew Point: 79°F , 26°C
Humidity: 100%
Barometer: 29.99 inHg , 1015.6 hPa
Clouds: Clear
Visibility: 10 miles , 16 km
2014/09/02 06:41 KESN 020641Z AUTO 00000KT 10SM CLR 26/26 A2999 RMK AO2 T02550255
KDCA - Washington/Natl, Washington D.c., USA
Distance from station: SW 49mi, 79km
Updated: Tue, 02-Sep-2014 1:52am EDT
Partly cloudy
Partly cloudy
 Wind from S
Wind: S 3 mph , 6 km/h
Temperature: 81°F , 27°C
Heat Index: 85°F , 29°C
Dew Point: 72°F , 22°C
Humidity: 74%
Barometer: 29.97 inHg , 1014.9 hPa
Clouds: Partly cloudy
Visibility: 10 miles , 16 km
Cloud details: Few Clouds 10000 ft
Partly cloudy 25000 ft
2014/09/02 05:52 KDCA 020552Z 17003KT 10SM FEW100 SCT250 27/22 A2997 RMK AO2 SLP149 T02720222 10294 20267 53000
 
KLNS - Lancaster, Pennsylvania, USA
Distance from station: N 49mi, 79km
Updated: Tue, 02-Sep-2014 1:53am EDT
Mist, Partly cloudy
Mist, Partly cloudy
 Wind from SE
Wind: SE 3 mph , 6 km/h
Temperature: 72°F , 22°C
Dew Point: 70°F , 21°C
Humidity: 94%
Barometer: 29.95 inHg , 1014.2 hPa
Summary: Mist
Clouds: Partly cloudy
Visibility: 5 miles , 8 km
Cloud details: Partly cloudy 6000 ft
2014/09/02 05:53 KLNS 020553Z AUTO 13003KT 5SM BR SCT060 22/21 A2995 RMK AO2 SLP139 60005 T02220211 10250 20217 58005 $
KILG - Wilmington, Delaware, USA
Distance from station: ENE 50mi, 81km
Updated: Tue, 02-Sep-2014 1:51am EDT
Partly cloudy
Partly cloudy
 Wind from calm
Wind: Calm
Temperature: 77°F , 25°C
Dew Point: 73°F , 23°C
Humidity: 89%
Barometer: 29.95 inHg , 1014.2 hPa
Clouds: Partly cloudy
Visibility: 10 miles , 16 km
Cloud details: Partly cloudy 7500 ft
2014/09/02 05:51 KILG 020551Z AUTO 00000KT 10SM SCT075 25/23 A2995 RMK AO2 SLP142 T02500233 10272 20250 58006 TSNO $